Flight Track Log - Related Links

Times and Time Zones

All times are in EDT time to prevent confusion due to time zone crossing. See the MTN8308 flight status page for this flight to view local times or setup timezone preferences in your user account.

Time Position Orientation Groundspeed Altitude Reporting Facility
EDT Latitude Longitude Course Direction KTS MPH feet Rate Location/Type
Thu 03:19:48 AM 40.6833 -74.2000 270° West 82 94 800  Level New York TRACON
Thu 03:20:48 AM 40.6667 -74.2333 237° Southwest 97 112 1,400 600 Climbing New York TRACON
Thu 03:21:48 AM 40.6500 -74.2667 237° Southwest 103 119 2,000 550 Climbing New York TRACON
Thu 03:22:48 AM 40.6500 -74.3000 270° West 117 135 2,500 550 Climbing New York TRACON
Thu 03:23:48 AM 40.6333 -74.3500 246° West 119 137 3,100 550 Climbing New York TRACON
Thu 03:24:48 AM 40.6000 -74.3833 217° Southwest 119 137 3,600 450 Climbing New York TRACON
Thu 03:25:00 AM 40.6333 -74.4247 270° West  Level FlightAware Approximate
Thu 03:25:48 AM 40.5833 -74.4167 237° Southwest 123 142 4,000  Level New York TRACON
Thu 03:26:48 AM 40.5500 -74.4500 217° Southwest 143 165 4,000  Level New York TRACON
Thu 03:27:49 AM 40.5333 -74.4833 237° Southwest 149 171 4,000  Level New York TRACON
Thu 03:28:49 AM 40.5000 -74.5333 229° Southwest 149 171 4,000  Level New York TRACON
Thu 03:29:49 AM 40.4833 -74.5667 237° Southwest 150 173 4,000 39 Level New York TRACON
Thu 03:31:21 AM 40.4333 -74.6333 225° Southwest 153 176 4,100  Climbing Philadelphia TRACON
Thu 03:32:21 AM 40.4167 -74.6833 246° West 155 178 4,000 -50 Descending Philadelphia TRACON
Thu 03:33:21 AM 40.3833 -74.7167 217° Southwest 151 174 4,000  Level Philadelphia TRACON
Thu 03:34:21 AM 40.3667 -74.7667 246° West 149 171 4,000  Level Philadelphia TRACON
Thu 03:35:21 AM 40.3500 -74.8167 246° West 148 170 4,000  Level Philadelphia TRACON
Thu 03:36:21 AM 40.3167 -74.8667 229° Southwest 147 169 4,000  Level Philadelphia TRACON
Thu 03:37:21 AM 40.3000 -74.9000 237° Southwest 147 169 4,000  Level Philadelphia TRACON
Thu 03:38:21 AM 40.2833 -74.9500 246° West 149 171 4,000  Level Philadelphia TRACON
Thu 03:39:21 AM 40.2500 -75.0000 229° Southwest 148 170 4,000  Level Philadelphia TRACON
Thu 03:40:21 AM 40.2333 -75.0333 237° Southwest 150 173 4,000  Level Philadelphia TRACON
Thu 03:41:27 AM 40.2000 -75.1000 237° Southwest 150 173 4,000  Level Philadelphia TRACON
Thu 03:42:27 AM 40.1833 -75.1333 237° Southwest 151 174 4,000  Level Philadelphia TRACON
Thu 03:43:21 AM 40.1667 -75.1833 246° West 152 175 4,000  Level Philadelphia TRACON
Thu 03:44:21 AM 40.1333 -75.2167 217° Southwest 152 175 4,000  Level Philadelphia TRACON
Thu 03:45:21 AM 40.1167 -75.2667 246° West 149 171 4,000  Level Philadelphia TRACON
Thu 03:46:21 AM 40.1000 -75.3167 246° West 151 174 4,000  Level Philadelphia TRACON
Thu 03:47:21 AM 40.0667 -75.3667 229° Southwest 152 175 4,000  Level Philadelphia TRACON
Thu 03:48:21 AM 40.0500 -75.4167 246° West 151 174 4,000  Level Philadelphia TRACON
Thu 03:49:21 AM 40.0333 -75.4500 237° Southwest 151 174 4,000  Level Philadelphia TRACON
Thu 03:50:27 AM 40.0000 -75.5000 229° Southwest 155 178 4,000  Level Philadelphia TRACON
Thu 03:51:27 AM 39.9833 -75.5500 247° West 154 177 4,000  Level Philadelphia TRACON
Thu 03:52:27 AM 39.9500 -75.6000 229° Southwest 154 177 4,000  Level Philadelphia TRACON
Thu 03:53:21 AM 39.9333 -75.6500 247° West 154 177 4,000  Level Philadelphia TRACON
Thu 03:54:21 AM 39.9000 -75.6833 217° Southwest 155 178 4,000  Level Philadelphia TRACON
Thu 03:55:21 AM 39.8833 -75.7333 247° West 156 180 4,000  Level Philadelphia TRACON
Thu 03:56:21 AM 39.8500 -75.7667 218° Southwest 158 182 4,000  Level Philadelphia TRACON
Thu 03:58:39 AM 39.7833 -75.8667 229° Southwest 159 183 4,000  Level Potomac TRACON
Thu 03:59:39 AM 39.7500 -75.9000 218° Southwest 158 182 4,000  Level Potomac TRACON
Thu 04:00:33 AM 39.7167 -75.9333 218° Southwest 159 183 4,000  Level Potomac TRACON
Thu 04:01:33 AM 39.6833 -75.9833 229° Southwest 157 181 4,000  Level Potomac TRACON
Thu 04:02:33 AM 39.6667 -76.0167 237° Southwest 157 181 4,000  Level Potomac TRACON
Thu 04:03:33 AM 39.6333 -76.0500 218° Southwest 159 183 4,000  Level Potomac TRACON
Thu 04:04:33 AM 39.6000 -76.1000 229° Southwest 156 180 4,000  Level Potomac TRACON
Thu 04:05:33 AM 39.5667 -76.1333 218° Southwest 160 184 4,000  Level Potomac TRACON
Thu 04:06:33 AM 39.5500 -76.1833 247° West 157 181 4,000  Level Potomac TRACON
Thu 04:07:27 AM 39.5167 -76.2167 218° Southwest 156 180 4,000  Level Potomac TRACON
Thu 04:08:27 AM 39.4833 -76.2500 218° Southwest 155 178 4,000  Level Potomac TRACON
Thu 04:09:27 AM 39.4500 -76.3000 229° Southwest 156 180 4,000  Level Potomac TRACON
Thu 04:10:27 AM 39.4167 -76.3333 218° Southwest 157 181 4,000 -50 Level Potomac TRACON
Thu 04:11:27 AM 39.3833 -76.3833 229° Southwest 159 183 3,900 -150 Descending Potomac TRACON
Thu 04:12:27 AM 39.3500 -76.4167 218° Southwest 163 188 3,700 -300 Descending Potomac TRACON
Thu 04:13:27 AM 39.3167 -76.4500 218° Southwest 170 196 3,300 -550 Descending Potomac TRACON
Thu 04:14:27 AM 39.2833 -76.5000 229° Southwest 178 205 2,600 -650 Descending Potomac TRACON
Thu 04:15:27 AM 39.2500 -76.5333 218° Southwest 180 207 2,000 -600 Descending Potomac TRACON
Thu 04:16:27 AM 39.2000 -76.5833 218° Southwest 175 201 1,400 -650 Descending Potomac TRACON
Thu 04:17:27 AM 39.1833 -76.6167 237° Southwest 157 181 700 -500 Descending Potomac TRACON
Thu 04:18:27 AM 39.1667 -76.6500 237° Southwest 124 143 400 -300 Descending Potomac TRACON
Thu 04:20:00 AM 39.1667 -76.6667 270° West  Level FlightAware Approximate
Thu 04:27:00 AM 39.1754 -76.6683 270° West  Level Estimated
Thu 04:28:00 AM 39.1754 -76.6683 270° West  Level Estimated
Thu 04:29:00 AM 39.1754 -76.6683 270° West  Level Estimated

Login

Don't have an account? Register now (free) for customized features, flight alerts, and more!